Eunola, Alabama
Current Conditions -  °F | °C
As of 6:15 AM on Friday 24 Oct 2014 (Local Time) from KEDN Reporting Station
Clear Clear  
Wind Chill: 50°   Ceiling: Unl
Heat Index: 50°   Visibility: 10mi
Dew Point: 45°   Wind: 3mph
Humidity: 82%   Direction: 10°N
Pressure: 30.05"   Gusts: NA
Location:  31.0669°N, 85.9172°W
Report Text: KEDN 241115Z AUTO 01003KT 10SM CLR 10/07 A3005 RMK AO2
Loading
Personal Weather Stations






























Interactive Weather Map
Tropical Storm Tracking
New forecast layout! Learn more

10-Day Weather Forecast

Advertisements
Track Severe Weather on mobile